TAP98 LPPT-GOBD
Flight info
| Callsign | TAP98 |
|---|---|
| Flight time | N/A |
| Altitude | 33000 |
| Route | BEVOP DCT BAROK UN873 MITLA/N0459F350 UN873 SAMAR N873 GDV/N0459F340 M660 DKH L660 LOLOS/N0461F360 L660 MAURI DCT PE UB600 LIMAX LIMAX1A |
| Aircraft | A321/M-SDE3FGHIRWY/LB1 |
Departure
| Time | 2026-05-01 12:56 |
|---|---|
| Airport | Lisbon Humberto Delgado Airport (LPPT) |
Arrival
| Time | N/A |
|---|---|
| Airport | Blaise Diagne International Airport (GOBD) |
| Time | Latitude | Longitude | Altitude | Speed | Heading |
|---|---|---|---|---|---|
| 2026-05-01 12:25 | 38.77161 | -9.13129 | 329 ft | 0 kts | 79° |
| 2026-05-01 12:41 | 38.77159 | -9.13136 | 329 ft | 2 kts | 79° |
| 2026-05-01 12:41 | 38.77157 | -9.13155 | 328 ft | 2 kts | 78° |
| 2026-05-01 12:41 | 38.77154 | -9.13174 | 327 ft | 2 kts | 79° |
| 2026-05-01 12:41 | 38.77151 | -9.13192 | 327 ft | 2 kts | 79° |
| 2026-05-01 12:42 | 38.77149 | -9.13206 | 327 ft | 1 kts | 45° |
| 2026-05-01 12:42 | 38.77141 | -9.13211 | 327 ft | 1 kts | 351° |
| 2026-05-01 12:42 | 38.77128 | -9.13205 | 328 ft | 2 kts | 345° |
| 2026-05-01 12:42 | 38.77120 | -9.13203 | 328 ft | 0 kts | 351° |
| 2026-05-01 12:45 | 38.77123 | -9.13203 | 328 ft | 2 kts | 351° |
| 2026-05-01 12:45 | 38.77158 | -9.13211 | 326 ft | 7 kts | 349° |
| 2026-05-01 12:46 | 38.77226 | -9.13230 | 323 ft | 12 kts | 347° |
| 2026-05-01 12:46 | 38.77321 | -9.13256 | 319 ft | 15 kts | 351° |
| 2026-05-01 12:46 | 38.77422 | -9.13277 | 321 ft | 13 kts | 349° |
| 2026-05-01 12:46 | 38.77506 | -9.13299 | 325 ft | 11 kts | 348° |
| 2026-05-01 12:47 | 38.77575 | -9.13317 | 328 ft | 8 kts | 352° |
| 2026-05-01 12:47 | 38.77629 | -9.13321 | 330 ft | 7 kts | 359° |
| 2026-05-01 12:47 | 38.77681 | -9.13325 | 332 ft | 7 kts | 349° |
| 2026-05-01 12:47 | 38.77747 | -9.13342 | 332 ft | 11 kts | 347° |
| 2026-05-01 12:48 | 38.77824 | -9.13363 | 336 ft | 10 kts | 348° |
| 2026-05-01 12:48 | 38.77905 | -9.13384 | 340 ft | 13 kts | 348° |
| 2026-05-01 12:48 | 38.78006 | -9.13411 | 344 ft | 16 kts | 352° |
| 2026-05-01 12:48 | 38.78119 | -9.13369 | 348 ft | 16 kts | 21° |
| 2026-05-01 12:49 | 38.78229 | -9.13312 | 349 ft | 17 kts | 24° |
| 2026-05-01 12:49 | 38.78347 | -9.13249 | 349 ft | 18 kts | 18° |
| 2026-05-01 12:49 | 38.78459 | -9.13225 | 355 ft | 14 kts | 353° |
| 2026-05-01 12:49 | 38.78532 | -9.13276 | 358 ft | 11 kts | 302° |
| 2026-05-01 12:50 | 38.78577 | -9.13359 | 361 ft | 12 kts | 326° |
| 2026-05-01 12:50 | 38.78667 | -9.13391 | 361 ft | 15 kts | 349° |
| 2026-05-01 12:50 | 38.78780 | -9.13421 | 358 ft | 18 kts | 347° |
| 2026-05-01 12:50 | 38.78922 | -9.13422 | 350 ft | 22 kts | 25° |
| 2026-05-01 12:51 | 38.79084 | -9.13332 | 343 ft | 26 kts | 23° |
| 2026-05-01 12:51 | 38.79260 | -9.13239 | 343 ft | 27 kts | 22° |
| 2026-05-01 12:51 | 38.79591 | -9.13060 | 354 ft | 23 kts | 23° |
| 2026-05-01 12:52 | 38.79729 | -9.12989 | 355 ft | 17 kts | 22° |
| 2026-05-01 12:52 | 38.79767 | -9.12884 | 348 ft | 0 kts | 114° |
| 2026-05-01 12:54 | 38.79755 | -9.12849 | 346 ft | 9 kts | 113° |
| 2026-05-01 12:54 | 38.79653 | -9.12772 | 341 ft | 0 kts | 205° |
| 2026-05-01 12:55 | 38.79597 | -9.12805 | 340 ft | 29 kts | 203° |
| 2026-05-01 12:55 | 38.79216 | -9.13012 | 341 ft | 87 kts | 203° |
| 2026-05-01 12:55 | 38.78465 | -9.13413 | 360 ft | 144 kts | 203° |
| 2026-05-01 12:56 | 38.77388 | -9.13993 | 389 ft | 188 kts | 204° |
| 2026-05-01 12:56 | 38.76188 | -9.14666 | 953 ft | 191 kts | 205° |
| 2026-05-01 12:56 | 38.74968 | -9.15353 | 1628 ft | 194 kts | 203° |
| 2026-05-01 12:56 | 38.73722 | -9.16013 | 2270 ft | 195 kts | 202° |
| 2026-05-01 12:57 | 38.72436 | -9.16675 | 2699 ft | 203 kts | 202° |
| 2026-05-01 12:57 | 38.69644 | -9.18105 | 3282 ft | 235 kts | 202° |
| 2026-05-01 12:57 | 38.68084 | -9.18925 | 3621 ft | 251 kts | 202° |
| 2026-05-01 12:58 | 38.66419 | -9.19806 | 4058 ft | 263 kts | 202° |
| 2026-05-01 12:58 | 38.64735 | -9.20687 | 4713 ft | 265 kts | 201° |
| 2026-05-01 12:58 | 38.62997 | -9.21460 | 5424 ft | 265 kts | 197° |
| 2026-05-01 12:59 | 38.59438 | -9.22736 | 6766 ft | 268 kts | 195° |
| 2026-05-01 12:59 | 38.57659 | -9.23362 | 7448 ft | 268 kts | 195° |
| 2026-05-01 12:59 | 38.53983 | -9.24268 | 8733 ft | 270 kts | 188° |
| 2026-05-01 13:00 | 38.50249 | -9.24909 | 10006 ft | 272 kts | 188° |
| 2026-05-01 13:00 | 38.48369 | -9.25229 | 10558 ft | 277 kts | 188° |
| 2026-05-01 13:01 | 38.44376 | -9.25912 | 11099 ft | 304 kts | 188° |
| 2026-05-01 13:01 | 38.42231 | -9.26278 | 11352 ft | 318 kts | 188° |
| 2026-05-01 13:01 | 38.37701 | -9.27050 | 12142 ft | 332 kts | 188° |
| 2026-05-01 13:02 | 38.35408 | -9.27441 | 12701 ft | 334 kts | 188° |
| 2026-05-01 13:07 | 37.83561 | -9.35624 | 21495 ft | 384 kts | 192° |
| 2026-05-01 13:07 | 37.80918 | -9.35972 | 21812 ft | 386 kts | 192° |
| 2026-05-01 13:07 | 37.78234 | -9.36326 | 22150 ft | 388 kts | 192° |
| 2026-05-01 13:08 | 37.75532 | -9.36684 | 22459 ft | 390 kts | 192° |
| 2026-05-01 13:08 | 37.72823 | -9.37042 | 22795 ft | 392 kts | 192° |
| 2026-05-01 13:08 | 37.70125 | -9.37397 | 23125 ft | 393 kts | 192° |
| 2026-05-01 13:08 | 37.67414 | -9.37755 | 23410 ft | 396 kts | 193° |
| 2026-05-01 13:09 | 37.64657 | -9.38119 | 23716 ft | 398 kts | 193° |
| 2026-05-01 13:09 | 37.61910 | -9.38567 | 24005 ft | 398 kts | 196° |
| 2026-05-01 13:09 | 37.59187 | -9.39230 | 24304 ft | 397 kts | 199° |
| 2026-05-01 13:09 | 37.56540 | -9.40096 | 24601 ft | 396 kts | 203° |
| 2026-05-01 13:10 | 37.53886 | -9.41133 | 24900 ft | 397 kts | 204° |
| 2026-05-01 13:10 | 37.51256 | -9.42174 | 25179 ft | 399 kts | 204° |
| 2026-05-01 13:10 | 37.48623 | -9.43221 | 25482 ft | 400 kts | 204° |
| 2026-05-01 13:10 | 37.45957 | -9.44277 | 25760 ft | 402 kts | 204° |
| 2026-05-01 13:11 | 37.43284 | -9.45337 | 26027 ft | 403 kts | 204° |
| 2026-05-01 13:11 | 37.40624 | -9.46390 | 26293 ft | 405 kts | 204° |
| 2026-05-01 13:11 | 37.37947 | -9.47452 | 26566 ft | 406 kts | 204° |
| 2026-05-01 13:11 | 37.35228 | -9.48529 | 26805 ft | 408 kts | 205° |
| 2026-05-01 13:12 | 37.32511 | -9.49604 | 27035 ft | 410 kts | 204° |
| 2026-05-01 13:12 | 37.29796 | -9.50675 | 27324 ft | 410 kts | 205° |
| 2026-05-01 13:12 | 37.27081 | -9.51748 | 27545 ft | 412 kts | 205° |
| 2026-05-01 13:12 | 37.24326 | -9.52836 | 27760 ft | 414 kts | 205° |
| 2026-05-01 13:13 | 37.21578 | -9.53920 | 27986 ft | 416 kts | 205° |
| 2026-05-01 13:13 | 37.18848 | -9.54995 | 28200 ft | 417 kts | 205° |
| 2026-05-01 13:13 | 37.16050 | -9.56098 | 28434 ft | 418 kts | 205° |
| 2026-05-01 13:13 | 37.13284 | -9.57184 | 28672 ft | 419 kts | 205° |
| 2026-05-01 13:14 | 37.10496 | -9.58281 | 28867 ft | 420 kts | 205° |
| 2026-05-01 13:14 | 37.07725 | -9.59369 | 29134 ft | 420 kts | 205° |
| 2026-05-01 13:14 | 37.04950 | -9.60454 | 29428 ft | 419 kts | 205° |
| 2026-05-01 13:14 | 37.02151 | -9.61553 | 29713 ft | 418 kts | 205° |
| 2026-05-01 13:15 | 36.99414 | -9.62626 | 30019 ft | 416 kts | 205° |
| 2026-05-01 13:15 | 36.96639 | -9.63712 | 30304 ft | 416 kts | 205° |
| 2026-05-01 13:15 | 36.93901 | -9.64784 | 30570 ft | 415 kts | 205° |
| 2026-05-01 13:15 | 36.91121 | -9.65870 | 30867 ft | 414 kts | 204° |
| 2026-05-01 13:16 | 36.88406 | -9.66932 | 31163 ft | 413 kts | 205° |
| 2026-05-01 13:16 | 36.85649 | -9.68009 | 31446 ft | 412 kts | 204° |
| 2026-05-01 13:16 | 36.82935 | -9.69069 | 31685 ft | 413 kts | 204° |
| 2026-05-01 13:17 | 36.74678 | -9.72288 | 32294 ft | 415 kts | 204° |
| 2026-05-01 13:17 | 36.71928 | -9.73357 | 32495 ft | 415 kts | 204° |
| 2026-05-01 13:18 | 36.66428 | -9.75494 | 32933 ft | 415 kts | 204° |
| 2026-05-01 13:18 | 36.63652 | -9.76572 | 33128 ft | 416 kts | 204° |
| 2026-05-01 13:18 | 36.58156 | -9.78702 | 33156 ft | 417 kts | 204° |
| 2026-05-01 13:19 | 36.52609 | -9.80848 | 33160 ft | 417 kts | 204° |
| 2026-05-01 13:20 | 36.44288 | -9.84064 | 33159 ft | 416 kts | 204° |
| 2026-05-01 13:20 | 36.38753 | -9.86197 | 33159 ft | 418 kts | 204° |
| 2026-05-01 13:21 | 36.30455 | -9.89391 | 33159 ft | 417 kts | 204° |
| 2026-05-01 13:21 | 36.24931 | -9.91516 | 33159 ft | 417 kts | 204° |
| 2026-05-01 13:22 | 36.19381 | -9.93644 | 33161 ft | 417 kts | 204° |
| 2026-05-01 13:22 | 36.13844 | -9.95768 | 33160 ft | 418 kts | 204° |
| 2026-05-01 13:23 | 36.08286 | -9.97895 | 33160 ft | 418 kts | 204° |
| 2026-05-01 13:23 | 36.02781 | -10.00147 | 33159 ft | 414 kts | 207° |
| 2026-05-01 13:24 | 35.97554 | -10.02972 | 33156 ft | 410 kts | 212° |
| 2026-05-01 13:25 | 35.90267 | -10.08328 | 33159 ft | 405 kts | 220° |
| 2026-05-01 13:25 | 35.85776 | -10.12446 | 33158 ft | 404 kts | 222° |
| 2026-05-01 13:26 | 35.81278 | -10.16606 | 33155 ft | 404 kts | 222° |
| 2026-05-01 13:26 | 35.76790 | -10.20756 | 33163 ft | 404 kts | 222° |
| 2026-05-01 13:27 | 35.72287 | -10.24917 | 33154 ft | 404 kts | 222° |
| 2026-05-01 13:27 | 35.65561 | -10.31125 | 33157 ft | 405 kts | 222° |
| 2026-05-01 13:28 | 35.58798 | -10.37353 | 33156 ft | 405 kts | 222° |
| 2026-05-01 13:29 | 35.49777 | -10.45641 | 33163 ft | 405 kts | 221° |
| 2026-05-01 13:31 | 35.36263 | -10.58016 | 33156 ft | 405 kts | 221° |
| 2026-05-01 13:32 | 35.24920 | -10.68360 | 33160 ft | 407 kts | 221° |
| 2026-05-01 13:33 | 35.13583 | -10.78660 | 33159 ft | 407 kts | 221° |
| 2026-05-01 13:34 | 35.04518 | -10.86874 | 33158 ft | 407 kts | 221° |
| 2026-05-01 13:35 | 34.97676 | -10.93056 | 33161 ft | 408 kts | 221° |
| 2026-05-01 13:36 | 34.90860 | -10.99202 | 33159 ft | 407 kts | 221° |
| 2026-05-01 13:36 | 34.84042 | -11.05338 | 33161 ft | 407 kts | 221° |
| 2026-05-01 13:37 | 34.79503 | -11.09417 | 33157 ft | 407 kts | 221° |
| 2026-05-01 13:37 | 34.74923 | -11.13524 | 33157 ft | 407 kts | 221° |
| 2026-05-01 13:38 | 34.68113 | -11.19625 | 33157 ft | 406 kts | 221° |
| 2026-05-01 13:39 | 34.63564 | -11.23691 | 33158 ft | 407 kts | 221° |
| 2026-05-01 13:39 | 34.59000 | -11.27780 | 33158 ft | 406 kts | 221° |
| 2026-05-01 13:40 | 34.54481 | -11.31831 | 33156 ft | 406 kts | 221° |
| 2026-05-01 13:40 | 34.49939 | -11.35900 | 33158 ft | 406 kts | 221° |
| 2026-05-01 13:41 | 34.45393 | -11.39969 | 33159 ft | 407 kts | 221° |
| 2026-05-01 13:41 | 34.40859 | -11.44023 | 33158 ft | 406 kts | 221° |
| 2026-05-01 13:42 | 34.36296 | -11.48093 | 33159 ft | 407 kts | 221° |
| 2026-05-01 13:42 | 34.31770 | -11.52126 | 33156 ft | 407 kts | 221° |
| 2026-05-01 13:43 | 34.27191 | -11.56202 | 33160 ft | 407 kts | 221° |
| 2026-05-01 13:43 | 34.22662 | -11.60227 | 33159 ft | 407 kts | 221° |
| 2026-05-01 13:44 | 34.18110 | -11.64269 | 33157 ft | 406 kts | 221° |
| 2026-05-01 13:44 | 34.13554 | -11.68304 | 33157 ft | 407 kts | 220° |
| 2026-05-01 13:45 | 34.08998 | -11.72338 | 33158 ft | 407 kts | 221° |
| 2026-05-01 13:45 | 34.04424 | -11.76383 | 33158 ft | 407 kts | 220° |
| 2026-05-01 13:46 | 33.99863 | -11.80408 | 33155 ft | 407 kts | 220° |
| 2026-05-01 13:46 | 33.95283 | -11.84446 | 33156 ft | 408 kts | 220° |
| 2026-05-01 13:47 | 33.90733 | -11.88452 | 33158 ft | 407 kts | 220° |
| 2026-05-01 13:47 | 33.86154 | -11.92475 | 33158 ft | 407 kts | 220° |
| 2026-05-01 13:48 | 33.81572 | -11.96501 | 33158 ft | 408 kts | 220° |
| 2026-05-01 13:48 | 33.77004 | -12.00505 | 33154 ft | 408 kts | 220° |
| 2026-05-01 13:49 | 33.72392 | -12.04542 | 33156 ft | 409 kts | 220° |
| 2026-05-01 13:49 | 33.67805 | -12.08553 | 33157 ft | 408 kts | 220° |
| 2026-05-01 13:50 | 33.63220 | -12.12558 | 33157 ft | 409 kts | 220° |
| 2026-05-01 13:50 | 33.58617 | -12.16571 | 33157 ft | 410 kts | 220° |
| 2026-05-01 13:51 | 33.54017 | -12.20578 | 33156 ft | 409 kts | 220° |
| 2026-05-01 13:51 | 33.49397 | -12.24593 | 33158 ft | 410 kts | 220° |
| 2026-05-01 13:52 | 33.44791 | -12.28596 | 33161 ft | 410 kts | 220° |
| 2026-05-01 13:52 | 33.40178 | -12.32595 | 33156 ft | 410 kts | 220° |
| 2026-05-01 13:53 | 33.35559 | -12.36598 | 33155 ft | 410 kts | 220° |
| 2026-05-01 13:53 | 33.28651 | -12.42571 | 33156 ft | 411 kts | 220° |
| 2026-05-01 13:54 | 33.24023 | -12.46566 | 33153 ft | 411 kts | 220° |
| 2026-05-01 13:54 | 33.19365 | -12.50583 | 33157 ft | 412 kts | 220° |
| 2026-05-01 13:55 | 33.14729 | -12.54577 | 33156 ft | 412 kts | 220° |
| 2026-05-01 13:55 | 33.10077 | -12.58575 | 33154 ft | 412 kts | 220° |
| 2026-05-01 13:56 | 33.05429 | -12.62566 | 33158 ft | 413 kts | 220° |
| 2026-05-01 13:56 | 33.00789 | -12.66547 | 33157 ft | 413 kts | 220° |
| 2026-05-01 13:57 | 32.96894 | -12.69884 | 33159 ft | 414 kts | 220° |
| 2026-05-01 13:57 | 32.91461 | -12.74536 | 33159 ft | 414 kts | 220° |
| 2026-05-01 13:58 | 32.86788 | -12.78528 | 33159 ft | 414 kts | 220° |
| 2026-05-01 13:58 | 32.82103 | -12.82513 | 33159 ft | 414 kts | 219° |
| 2026-05-01 13:59 | 32.77414 | -12.86483 | 33159 ft | 414 kts | 219° |
| 2026-05-01 13:59 | 32.72752 | -12.90427 | 33159 ft | 414 kts | 219° |
| 2026-05-01 14:00 | 32.68050 | -12.94400 | 33159 ft | 414 kts | 219° |
| 2026-05-01 14:00 | 32.63350 | -12.98369 | 33159 ft | 415 kts | 219° |
| 2026-05-01 14:01 | 32.58632 | -13.02350 | 33159 ft | 415 kts | 219° |
| 2026-05-01 14:01 | 32.53914 | -13.06322 | 33159 ft | 415 kts | 219° |
| 2026-05-01 14:02 | 32.49204 | -13.10284 | 33159 ft | 415 kts | 219° |
| 2026-05-01 14:02 | 32.44485 | -13.14248 | 33160 ft | 415 kts | 219° |
| 2026-05-01 14:03 | 32.39778 | -13.18199 | 33298 ft | 419 kts | 219° |
| 2026-05-01 14:03 | 32.37405 | -13.20188 | 33532 ft | 418 kts | 219° |
| 2026-05-01 14:03 | 32.35023 | -13.22183 | 33808 ft | 417 kts | 219° |
| 2026-05-01 14:04 | 32.32652 | -13.24164 | 34064 ft | 415 kts | 219° |
| 2026-05-01 14:04 | 32.30322 | -13.26113 | 34294 ft | 414 kts | 219° |
| 2026-05-01 14:04 | 32.27967 | -13.28079 | 34538 ft | 413 kts | 219° |
| 2026-05-01 14:04 | 32.26397 | -13.29391 | 34702 ft | 412 kts | 219° |
| 2026-05-01 14:05 | 32.23280 | -13.31995 | 34979 ft | 411 kts | 220° |
| 2026-05-01 14:05 | 32.20963 | -13.33928 | 35150 ft | 411 kts | 220° |
| 2026-05-01 14:05 | 32.16299 | -13.37817 | 35157 ft | 411 kts | 219° |
| 2026-05-01 14:06 | 32.11653 | -13.41685 | 35158 ft | 410 kts | 219° |
| 2026-05-01 14:06 | 32.06965 | -13.45586 | 35158 ft | 411 kts | 219° |
| 2026-05-01 14:07 | 32.02297 | -13.49460 | 35158 ft | 411 kts | 219° |
| 2026-05-01 14:08 | 31.95298 | -13.55262 | 35159 ft | 411 kts | 219° |
| 2026-05-01 14:08 | 31.90609 | -13.59143 | 35155 ft | 411 kts | 219° |
| 2026-05-01 14:09 | 31.85954 | -13.62994 | 35157 ft | 411 kts | 219° |
| 2026-05-01 14:09 | 31.81235 | -13.66889 | 35160 ft | 412 kts | 219° |
| 2026-05-01 14:10 | 31.76564 | -13.70740 | 35158 ft | 412 kts | 219° |
| 2026-05-01 14:10 | 31.71879 | -13.74598 | 35158 ft | 412 kts | 219° |
| 2026-05-01 14:11 | 31.67162 | -13.78480 | 35158 ft | 413 kts | 219° |
| 2026-05-01 14:11 | 31.60140 | -13.84247 | 35156 ft | 413 kts | 219° |
| 2026-05-01 14:12 | 31.55409 | -13.88127 | 35156 ft | 413 kts | 219° |
| 2026-05-01 14:12 | 31.50713 | -13.91974 | 35160 ft | 413 kts | 219° |
| 2026-05-01 14:13 | 31.46779 | -13.95189 | 35161 ft | 413 kts | 219° |
| 2026-05-01 14:13 | 31.41308 | -13.99662 | 35156 ft | 413 kts | 219° |
| 2026-05-01 14:14 | 31.36588 | -14.03515 | 35157 ft | 414 kts | 218° |
| 2026-05-01 14:14 | 31.31873 | -14.07358 | 35157 ft | 414 kts | 218° |
| 2026-05-01 14:15 | 31.27149 | -14.11216 | 35161 ft | 414 kts | 219° |
| 2026-05-01 14:15 | 31.22441 | -14.15072 | 35159 ft | 414 kts | 219° |
| 2026-05-01 14:16 | 31.17727 | -14.18928 | 35158 ft | 414 kts | 218° |
| 2026-05-01 14:16 | 31.13000 | -14.22789 | 35160 ft | 414 kts | 219° |
| 2026-05-01 14:17 | 31.08284 | -14.26641 | 35155 ft | 415 kts | 219° |
| 2026-05-01 14:17 | 31.03581 | -14.30475 | 35159 ft | 415 kts | 218° |
| 2026-05-01 14:18 | 30.98839 | -14.34335 | 35157 ft | 415 kts | 219° |
| 2026-05-01 14:18 | 30.94853 | -14.37482 | 35160 ft | 417 kts | 216° |
| 2026-05-01 14:19 | 30.88915 | -14.41275 | 35161 ft | 420 kts | 210° |
| 2026-05-01 14:19 | 30.83508 | -14.43868 | 35158 ft | 423 kts | 204° |
| 2026-05-01 14:20 | 30.75060 | -14.47028 | 35158 ft | 424 kts | 202° |
| 2026-05-01 14:21 | 30.69442 | -14.49104 | 35154 ft | 425 kts | 202° |
| 2026-05-01 14:21 | 30.63808 | -14.51178 | 35156 ft | 426 kts | 202° |
| 2026-05-01 14:22 | 30.55303 | -14.54305 | 35158 ft | 426 kts | 202° |
| 2026-05-01 14:22 | 30.49671 | -14.56373 | 35156 ft | 426 kts | 202° |
| 2026-05-01 14:23 | 30.44025 | -14.58441 | 35158 ft | 426 kts | 202° |
| 2026-05-01 14:23 | 30.38382 | -14.60505 | 35157 ft | 426 kts | 202° |
| 2026-05-01 14:24 | 30.32700 | -14.62583 | 35160 ft | 426 kts | 202° |
| 2026-05-01 14:24 | 30.27071 | -14.64638 | 35156 ft | 427 kts | 202° |
| 2026-05-01 14:25 | 30.21388 | -14.66711 | 35160 ft | 427 kts | 201° |
| 2026-05-01 14:25 | 30.15706 | -14.68780 | 35157 ft | 428 kts | 201° |
| 2026-05-01 14:26 | 30.07195 | -14.71877 | 35160 ft | 428 kts | 201° |
| 2026-05-01 14:27 | 30.01516 | -14.73937 | 35157 ft | 428 kts | 201° |
| 2026-05-01 14:27 | 29.95840 | -14.75997 | 35155 ft | 429 kts | 201° |
| 2026-05-01 14:28 | 29.87296 | -14.79090 | 35157 ft | 429 kts | 201° |
| 2026-05-01 14:28 | 29.81588 | -14.81153 | 35156 ft | 429 kts | 201° |
| 2026-05-01 14:29 | 29.75876 | -14.83216 | 35159 ft | 429 kts | 201° |
| 2026-05-01 14:30 | 29.64461 | -14.87332 | 35159 ft | 430 kts | 201° |
| 2026-05-01 14:31 | 29.55926 | -14.90404 | 35156 ft | 429 kts | 201° |
| 2026-05-01 14:31 | 29.50215 | -14.92455 | 35154 ft | 430 kts | 201° |
| 2026-05-01 14:32 | 29.44519 | -14.94499 | 35157 ft | 430 kts | 201° |
| 2026-05-01 14:32 | 29.38771 | -14.96559 | 35157 ft | 431 kts | 201° |
| 2026-05-01 14:33 | 29.33082 | -14.98595 | 35159 ft | 430 kts | 201° |
| 2026-05-01 14:33 | 29.27346 | -15.00646 | 35158 ft | 430 kts | 201° |
| 2026-05-01 14:34 | 29.21619 | -15.02691 | 35157 ft | 430 kts | 201° |
| 2026-05-01 14:34 | 29.15933 | -15.04719 | 35160 ft | 431 kts | 201° |
| 2026-05-01 14:35 | 29.10215 | -15.06757 | 35155 ft | 430 kts | 201° |
| 2026-05-01 14:35 | 29.04483 | -15.08797 | 35156 ft | 431 kts | 201° |
| 2026-05-01 14:36 | 28.98754 | -15.10833 | 35159 ft | 431 kts | 201° |
| 2026-05-01 14:36 | 28.93009 | -15.12874 | 35158 ft | 431 kts | 201° |
| 2026-05-01 14:37 | 28.87288 | -15.14902 | 35158 ft | 431 kts | 201° |
| 2026-05-01 14:37 | 28.81557 | -15.16932 | 35159 ft | 431 kts | 201° |
| 2026-05-01 14:38 | 28.75831 | -15.18958 | 35158 ft | 431 kts | 201° |
| 2026-05-01 14:38 | 28.70111 | -15.20981 | 35159 ft | 431 kts | 201° |
| 2026-05-01 14:39 | 28.64399 | -15.22997 | 35159 ft | 431 kts | 201° |
| 2026-05-01 14:39 | 28.58671 | -15.25018 | 35158 ft | 432 kts | 201° |
| 2026-05-01 14:40 | 28.52910 | -15.27046 | 35159 ft | 431 kts | 201° |
| 2026-05-01 14:40 | 28.47204 | -15.29053 | 35158 ft | 431 kts | 201° |
| 2026-05-01 14:41 | 28.41474 | -15.31068 | 35158 ft | 431 kts | 201° |
| 2026-05-01 14:41 | 28.35715 | -15.33090 | 35158 ft | 432 kts | 201° |
| 2026-05-01 14:42 | 28.29969 | -15.35105 | 35158 ft | 432 kts | 201° |
| 2026-05-01 14:42 | 28.24233 | -15.37114 | 35158 ft | 432 kts | 201° |
| 2026-05-01 14:43 | 28.18494 | -15.39123 | 35159 ft | 431 kts | 201° |
| 2026-05-01 14:43 | 28.12748 | -15.41129 | 35163 ft | 432 kts | 200° |
| 2026-05-01 14:44 | 28.06925 | -15.42757 | 35167 ft | 434 kts | 194° |
| 2026-05-01 14:44 | 27.97859 | -15.44071 | 35182 ft | 437 kts | 190° |
| 2026-05-01 14:45 | 27.88792 | -15.45148 | 35173 ft | 437 kts | 190° |
| 2026-05-01 14:46 | 27.82744 | -15.45866 | 35159 ft | 437 kts | 190° |
| 2026-05-01 14:46 | 27.73700 | -15.46941 | 35158 ft | 436 kts | 190° |
| 2026-05-01 14:47 | 27.67654 | -15.47657 | 35152 ft | 436 kts | 191° |
| 2026-05-01 14:48 | 27.58600 | -15.48729 | 35157 ft | 435 kts | 191° |
| 2026-05-01 14:48 | 27.49552 | -15.49801 | 35153 ft | 436 kts | 191° |
| 2026-05-01 14:49 | 27.37504 | -15.51222 | 35145 ft | 435 kts | 191° |
| 2026-05-01 14:50 | 27.25454 | -15.52642 | 35147 ft | 435 kts | 191° |
| 2026-05-01 14:51 | 27.16460 | -15.53700 | 35144 ft | 434 kts | 191° |
| 2026-05-01 14:52 | 27.07447 | -15.54758 | 35150 ft | 434 kts | 192° |
| 2026-05-01 14:53 | 26.98419 | -15.55816 | 35150 ft | 434 kts | 192° |
| 2026-05-01 14:53 | 26.92410 | -15.56519 | 35150 ft | 433 kts | 192° |
| 2026-05-01 14:54 | 26.86392 | -15.57222 | 35149 ft | 433 kts | 192° |
| 2026-05-01 14:54 | 26.80431 | -15.57919 | 35147 ft | 433 kts | 192° |
| 2026-05-01 14:55 | 26.74414 | -15.58623 | 35148 ft | 432 kts | 192° |
| 2026-05-01 14:55 | 26.68421 | -15.59319 | 35147 ft | 432 kts | 192° |
| 2026-05-01 14:56 | 26.62476 | -15.60012 | 35143 ft | 432 kts | 193° |
| 2026-05-01 14:56 | 26.56475 | -15.60710 | 35145 ft | 433 kts | 193° |
| 2026-05-01 14:57 | 26.50488 | -15.61407 | 35146 ft | 432 kts | 193° |
| 2026-05-01 14:57 | 26.41516 | -15.62448 | 35144 ft | 432 kts | 193° |
| 2026-05-01 14:58 | 26.35538 | -15.63139 | 35141 ft | 431 kts | 193° |
| 2026-05-01 14:58 | 26.29568 | -15.63830 | 35141 ft | 431 kts | 193° |
| 2026-05-01 14:59 | 26.23601 | -15.64523 | 35142 ft | 431 kts | 193° |
| 2026-05-01 14:59 | 26.17651 | -15.65208 | 35142 ft | 431 kts | 193° |
| 2026-05-01 15:00 | 26.08701 | -15.66239 | 35138 ft | 430 kts | 193° |
| 2026-05-01 15:01 | 26.02735 | -15.66927 | 35139 ft | 430 kts | 193° |
| 2026-05-01 15:01 | 25.96791 | -15.67612 | 35138 ft | 430 kts | 193° |
| 2026-05-01 15:02 | 25.90850 | -15.68296 | 35134 ft | 430 kts | 193° |
| 2026-05-01 15:02 | 25.84878 | -15.68982 | 35133 ft | 430 kts | 193° |
| 2026-05-01 15:03 | 25.78927 | -15.69665 | 35134 ft | 429 kts | 193° |
| 2026-05-01 15:03 | 25.72971 | -15.70349 | 35140 ft | 429 kts | 193° |
| 2026-05-01 15:04 | 25.66997 | -15.71032 | 35133 ft | 429 kts | 193° |
| 2026-05-01 15:04 | 25.61068 | -15.71710 | 35135 ft | 429 kts | 193° |
| 2026-05-01 15:05 | 25.55126 | -15.72390 | 35133 ft | 429 kts | 193° |
| 2026-05-01 15:05 | 25.49176 | -15.73069 | 35133 ft | 429 kts | 193° |
| 2026-05-01 15:06 | 25.43272 | -15.73742 | 35131 ft | 429 kts | 193° |
| 2026-05-01 15:06 | 25.37305 | -15.74423 | 35131 ft | 429 kts | 193° |
| 2026-05-01 15:07 | 25.31367 | -15.75099 | 35130 ft | 429 kts | 193° |
| 2026-05-01 15:07 | 25.25439 | -15.75773 | 35135 ft | 429 kts | 193° |
| 2026-05-01 15:08 | 25.19488 | -15.76449 | 35133 ft | 428 kts | 193° |
| 2026-05-01 15:08 | 25.13561 | -15.77122 | 35136 ft | 428 kts | 193° |
| 2026-05-01 15:09 | 25.07645 | -15.77792 | 35132 ft | 428 kts | 193° |
| 2026-05-01 15:09 | 25.01726 | -15.78463 | 35131 ft | 427 kts | 193° |
| 2026-05-01 15:10 | 24.95769 | -15.79119 | 35133 ft | 428 kts | 193° |
| 2026-05-01 15:10 | 24.86888 | -15.80064 | 35133 ft | 428 kts | 193° |
| 2026-05-01 15:11 | 24.77985 | -15.81015 | 35133 ft | 428 kts | 193° |
| 2026-05-01 15:12 | 24.72039 | -15.81648 | 35127 ft | 428 kts | 193° |
| 2026-05-01 15:12 | 24.63133 | -15.82597 | 35127 ft | 427 kts | 193° |
| 2026-05-01 15:14 | 24.48332 | -15.84172 | 35121 ft | 428 kts | 193° |
| 2026-05-01 15:14 | 24.39470 | -15.85114 | 35123 ft | 427 kts | 193° |
| 2026-05-01 15:15 | 24.27593 | -15.86373 | 35117 ft | 426 kts | 193° |
| 2026-05-01 15:16 | 24.15753 | -15.87626 | 35115 ft | 426 kts | 193° |
| 2026-05-01 15:18 | 24.00964 | -15.89189 | 35119 ft | 427 kts | 193° |
| 2026-05-01 15:19 | 23.89116 | -15.90437 | 35109 ft | 428 kts | 193° |
| 2026-05-01 15:19 | 23.80223 | -15.91399 | 35113 ft | 426 kts | 195° |
| 2026-05-01 15:20 | 23.71588 | -15.93315 | 35106 ft | 419 kts | 203° |
| 2026-05-01 15:21 | 23.66096 | -15.95330 | 35108 ft | 416 kts | 207° |
| 2026-05-01 15:21 | 23.60649 | -15.97499 | 35101 ft | 416 kts | 207° |
| 2026-05-01 15:22 | 23.52500 | -16.00745 | 35097 ft | 417 kts | 207° |
| 2026-05-01 15:22 | 23.47015 | -16.02931 | 35091 ft | 417 kts | 207° |
| 2026-05-01 15:23 | 23.41566 | -16.05100 | 35088 ft | 418 kts | 206° |
| 2026-05-01 15:23 | 23.36119 | -16.07266 | 35085 ft | 418 kts | 206° |
| 2026-05-01 15:24 | 23.30640 | -16.09444 | 35083 ft | 419 kts | 206° |
| 2026-05-01 15:24 | 23.25157 | -16.11622 | 35076 ft | 420 kts | 206° |
| 2026-05-01 15:25 | 23.19669 | -16.13799 | 35071 ft | 420 kts | 206° |
| 2026-05-01 15:25 | 23.14165 | -16.15980 | 35081 ft | 420 kts | 206° |
| 2026-05-01 15:26 | 23.08690 | -16.18147 | 35071 ft | 420 kts | 206° |
| 2026-05-01 15:26 | 23.03162 | -16.20336 | 35075 ft | 420 kts | 206° |
| 2026-05-01 15:27 | 22.97686 | -16.22500 | 35076 ft | 420 kts | 206° |
| 2026-05-01 15:28 | 22.89430 | -16.25762 | 35074 ft | 421 kts | 206° |
| 2026-05-01 15:28 | 22.83928 | -16.27934 | 35076 ft | 420 kts | 206° |
| 2026-05-01 15:29 | 22.75658 | -16.31193 | 35072 ft | 421 kts | 206° |
| 2026-05-01 15:30 | 22.64657 | -16.35522 | 35073 ft | 421 kts | 206° |
| 2026-05-01 15:31 | 22.48135 | -16.42010 | 35070 ft | 421 kts | 206° |
| 2026-05-01 15:32 | 22.37104 | -16.46332 | 35075 ft | 421 kts | 206° |
| 2026-05-01 15:34 | 22.20574 | -16.52796 | 35075 ft | 421 kts | 206° |